Latest Weather Observations for Point Stuart

IDD60901

Issued at 11:31 pm CST Wednesday 27 January 2021 (issued every 10 minutes, with the page automatically refreshed every 10 minutes)

About weather observations | Map of Darwin area stations | Latest observations for Darwin area | Other Formats
Station Details ID: 014254 Name: POINT STUART Lat: -12.24 Lon: 131.88 Height: 1.0 m
Data from the previous 72 hours. | See also: Recent months at Point Stuart
Date/Time
CST
Temp
°C
App
Temp
°C
Dew
Point
°C
Rel
Hum
%
Delta-T
°C
Wind Press
QNH
hPa
Press
MSL
hPa
Rain since
9am
mm
Dir  Spd
km/h
Gust
km/h
Spd
kts
Gust
kts
27/11:30pm 25.9 - - - - WNW 2 6 1 3 1004.5 1004.5 6.6
27/11:00pm 26.1 - - - - W 11 15 6 8 1004.6 - 5.2
27/10:30pm 26.0 - - - - SW 13 19 7 10 1004.4 - 5.2
27/10:00pm 26.3 - - - - WSW 6 7 3 4 1003.9 - 3.6
27/09:30pm 26.3 - - - - CALM 0 0 0 0 1003.9 - 3.4
27/09:00pm 26.5 - - - - WNW 7 13 4 7 1003.8 1003.8 2.2
27/08:30pm 26.6 - - - - ENE 2 7 1 4 1003.2 - 0.4
27/08:00pm 26.5 - - - - NW 4 11 2 6 1002.6 - 0.4
27/07:30pm 26.8 - - - - SW 11 17 6 9 1002.3 - 0.0
27/07:00pm 26.8 - - - - N 11 20 6 11 1001.9 - 0.0
27/06:30pm 28.3 - - - - NNW 13 24 7 13 1001.4 - 0.0
27/06:00pm 28.6 - - - - WNW 24 32 13 17 1000.9 1000.9 0.0
27/05:30pm 28.3 - - - - NNW 15 24 8 13 1000.8 - 0.0
27/05:00pm 29.4 - - - - WNW 20 28 11 15 1000.7 - 0.0
27/04:30pm 29.7 - - - - WNW 22 28 12 15 1000.5 - 0.0
27/04:00pm 29.4 - - - - WNW 24 32 13 17 1000.8 - 0.0
27/03:30pm 29.8 - - - - WNW 22 30 12 16 1000.9 - 0.0
27/03:00pm 29.6 - - - - WNW 22 28 12 15 1001.0 1001.0 0.0
27/02:30pm 30.3 - - - - WNW 22 30 12 16 1001.3 - 0.0
27/02:00pm 30.6 - - - - WNW 28 35 15 19 1001.6 - 0.0
27/01:30pm 30.0 - - - - WNW 26 33 14 18 1002.0 - 0.0
27/01:00pm 30.1 - - - - WNW 26 33 14 18 1002.4 - 0.0
27/12:30pm 28.9 - - - - WNW 32 41 17 22 1002.7 - 0.0
27/12:00pm 28.5 - - - - WNW 28 35 15 19 1002.7 1002.7 0.0
27/11:30am 28.7 - - - - WNW 30 39 16 21 1002.9 - 0.0
27/11:00am 28.6 - - - - NW 32 41 17 22 1002.8 - 0.0
27/10:30am 29.0 - - - - NW 30 39 16 21 1002.8 - 0.0
27/10:00am 29.0 - - - - NW 30 41 16 22 1003.0 - 0.0
27/09:30am 28.8 - - - - NW 26 39 14 21 1003.1 - 0.0
27/09:00am 29.4 - - - - NNW 20 32 11 17 1003.0 1003.0 1.0
27/08:30am 28.0 - - - - NNW 20 32 11 17 1002.7 - 1.0
27/08:00am 27.4 - - - - NNW 20 33 11 18 1002.7 - 1.0
27/07:30am 27.2 - - - - NW 22 30 12 16 1002.6 - 1.0
27/07:00am 26.9 - - - - NNW 17 28 9 15 1002.5 - 1.0
27/06:30am 26.7 - - - - NW 19 30 10 16 1002.1 - 1.0
27/06:00am 26.3 - - - - WNW 11 15 6 8 1001.9 1001.9 1.0
27/05:30am 27.2 - - - - NW 22 32 12 17 1001.7 - 1.0
27/05:00am 27.0 - - - - NW 19 26 10 14 1001.4 - 1.0
27/04:30am 26.6 - - - - NW 17 24 9 13 1001.5 - 1.0
27/04:00am 26.5 - - - - NNW 17 26 9 14 1001.5 - 1.0
27/03:30am 26.5 - - - - NNW 11 17 6 9 1001.5 - 1.0
27/03:00am 25.4 - - - - N 6 11 3 6 1001.3 1001.3 1.0
27/02:30am 24.9 - - - - N 4 7 2 4 1001.6 - 1.0
27/02:00am 24.6 - - - - NNW 6 9 3 5 1001.8 - 1.0
27/01:30am 24.5 - - - - CALM 0 0 0 0 1002.1 - 1.0
27/01:00am 24.7 - - - - CALM 0 2 0 1 1002.1 - 1.0
27/12:30am 25.0 - - - - WSW 7 9 4 5 1002.6 - 1.0
27/12:00am 25.3 - - - - WSW 11 13 6 7 1003.3 1003.3 1.0
 
Date/Time
CST
Temp
°C
App
Temp
°C
Dew
Point
°C
Rel
Hum
%
Delta-T
°C
Wind Press
QNH
hPa
Press
MSL
hPa
Rain since
9am
mm
Dir  Spd
km/h
Gust
km/h
Spd
kts
Gust
kts
26/11:30pm 25.8 - - - - WSW 11 13 6 7 1003.4 - 1.0
26/11:00pm 26.3 - - - - W 11 15 6 8 1003.5 - 1.0
26/10:30pm 26.5 - - - - W 13 15 7 8 1003.1 - 1.0
26/10:00pm 26.7 - - - - WNW 15 20 8 11 1003.0 - 1.0
26/09:30pm 26.3 - - - - W 13 17 7 9 1002.8 - 1.0
26/09:00pm 26.1 - - - - W 13 17 7 9 1002.5 1002.5 1.0
26/08:30pm 26.5 - - - - W 13 17 7 9 1002.5 - 1.0
26/08:00pm 27.0 - - - - W 20 26 11 14 1002.2 - 1.0
26/07:30pm 27.2 - - - - WNW 22 28 12 15 1001.6 - 1.0
26/07:00pm 27.8 - - - - W 22 28 12 15 1001.1 - 1.0
26/06:30pm 27.7 - - - - WNW 20 26 11 14 1000.7 - 1.0
26/06:00pm 27.8 - - - - W 20 28 11 15 1000.5 1000.5 1.0
26/05:30pm 27.8 - - - - WNW 17 20 9 11 1000.5 - 1.0
26/05:00pm 27.9 - - - - WNW 17 22 9 12 1000.9 - 1.0
26/04:30pm 27.7 - - - - W 13 17 7 9 1000.9 - 1.0
26/04:00pm 27.4 - - - - WSW 11 13 6 7 1001.2 - 1.0
26/03:30pm 26.9 - - - - SW 20 33 11 18 1001.4 - 1.0
26/03:18pm 27.6 - - - - W 28 39 15 21 1001.2 - 1.0
26/03:00pm 27.5 - - - - NW 11 19 6 10 1001.3 1001.3 1.0
26/02:30pm 26.9 - - - - N 7 11 4 6 1001.6 - 1.0
26/02:00pm 26.1 - - - - NNW 7 15 4 8 1002.2 - 1.0
26/01:30pm 25.7 - - - - NNW 6 9 3 5 1002.6 - 1.0
26/01:00pm 26.2 - - - - WNW 22 30 12 16 1002.8 - 0.6
26/12:30pm 30.0 - - - - WSW 15 20 8 11 1002.8 - 0.0
26/12:00pm 29.3 - - - - WSW 11 15 6 8 1003.0 1003.0 0.0
26/11:30am 28.2 - - - - W 11 13 6 7 1003.5 - 0.0
26/11:00am 27.7 - - - - W 13 17 7 9 1003.6 - 0.0
26/10:30am 27.4 - - - - WNW 7 9 4 5 1003.6 - 0.0
26/10:00am 27.0 - - - - CALM 0 0 0 0 1003.6 - 0.0
26/09:30am 26.3 - - - - SW 6 7 3 4 1003.6 - 0.0
26/09:00am 25.6 - - - - SSW 7 9 4 5 1003.8 1003.8 9.6
26/08:30am 25.1 - - - - SW 7 9 4 5 1003.8 - 9.6
26/08:00am 24.8 - - - - SW 7 9 4 5 1003.5 - 9.6
26/07:30am 24.6 - - - - WSW 11 13 6 7 1003.2 - 9.4
26/07:00am 24.6 - - - - WSW 11 13 6 7 1003.2 - 9.2
26/06:30am 24.5 - - - - W 15 19 8 10 1003.1 - 8.2
26/06:00am 25.1 - - - - W 17 26 9 14 1003.0 1003.0 8.2
26/05:30am 25.3 - - - - W 19 24 10 13 1002.8 - 8.0
26/05:00am 24.9 - - - - WSW 13 15 7 8 1002.7 - 7.4
26/04:30am 25.1 - - - - WSW 13 19 7 10 1003.0 - 7.2
26/04:00am 25.2 - - - - W 15 19 8 10 1003.0 - 7.2
26/03:30am 24.9 - - - - W 17 20 9 11 1002.8 - 7.2
26/03:00am 25.0 - - - - W 17 20 9 11 1002.8 1002.8 6.8
26/02:30am 25.3 - - - - W 17 22 9 12 1003.0 - 6.6
26/02:00am 25.5 - - - - W 19 26 10 14 1003.1 - 6.6
26/01:30am 25.3 - - - - W 20 28 11 15 1003.5 - 6.6
26/01:00am 25.0 - - - - W 19 24 10 13 1003.9 - 6.6
26/12:30am 24.9 - - - - W 20 26 11 14 1004.3 - 6.6
26/12:00am 24.6 - - - - W 28 35 15 19 1005.2 1005.2 6.0
 
Date/Time
CST
Temp
°C
App
Temp
°C
Dew
Point
°C
Rel
Hum
%
Delta-T
°C
Wind Press
QNH
hPa
Press
MSL
hPa
Rain since
9am
mm
Dir  Spd
km/h
Gust
km/h
Spd
kts
Gust
kts
25/11:30pm 25.6 - - - - W 33 46 18 25 1005.5 - 5.2
25/11:00pm 26.8 - - - - W 26 35 14 19 1005.4 - 4.8
25/10:30pm 27.0 - - - - WNW 33 41 18 22 1005.1 - 4.8
25/10:00pm 27.4 - - - - WNW 30 39 16 21 1004.9 - 4.8
25/09:30pm 27.4 - - - - WNW 26 35 14 19 1004.6 - 4.8
25/09:00pm 27.3 - - - - WNW 22 32 12 17 1004.3 1004.3 4.8
25/08:30pm 27.0 - - - - W 24 30 13 16 1004.2 - 4.8
25/08:00pm 26.6 - - - - W 22 32 12 17 1003.8 - 4.8
25/07:30pm 26.6 - - - - W 22 30 12 16 1003.6 - 4.8
25/07:00pm 26.8 - - - - WNW 30 41 16 22 1003.2 - 4.8
25/06:30pm 27.1 - - - - WNW 28 39 15 21 1002.9 - 4.8
25/06:00pm 27.4 - - - - W 24 35 13 19 1002.5 1002.5 4.8
25/05:30pm 27.2 - - - - W 22 30 12 16 1002.6 - 4.8
25/05:00pm 25.9 - - - - NW 15 20 8 11 1002.8 - 4.8
25/04:40pm 26.6 - - - - W 28 50 15 27 1002.7 - 1.8
25/04:30pm 28.7 - - - - WNW 11 19 6 10 1002.4 - 1.8
25/04:00pm 28.5 - - - - W 9 13 5 7 1002.9 - 1.8
25/03:30pm 28.6 - - - - WNW 9 15 5 8 1003.0 - 1.8
25/03:00pm 28.1 - - - - WNW 11 15 6 8 1003.2 1003.2 1.8
25/02:30pm 27.5 - - - - W 11 17 6 9 1003.8 - 1.6
25/02:00pm 27.9 - - - - W 17 20 9 11 1004.2 - 1.0
25/01:30pm 27.3 - - - - W 17 20 9 11 1004.3 - 1.0
25/01:00pm 26.9 - - - - WSW 17 22 9 12 1004.4 - 1.0
25/12:30pm 26.8 - - - - SW 13 19 7 10 1004.2 - 1.0
25/12:00pm 27.0 - - - - W 13 17 7 9 1004.3 1004.3 1.0
25/11:30am 26.9 - - - - W 19 22 10 12 1004.9 - 1.0
25/11:00am 26.4 - - - - W 19 26 10 14 1005.8 - 1.0
25/10:30am 25.9 - - - - WNW 19 24 10 13 1006.4 - 0.8
25/10:00am 25.5 - - - - WNW 22 28 12 15 1006.9 - 0.8
25/09:30am 25.7 - - - - WNW 22 30 12 16 1007.1 - 0.6
25/09:00am 25.5 - - - - W 19 22 10 12 1006.9 1006.9 31.6
25/08:30am 25.1 - - - - NW 19 24 10 13 1006.4 - 31.2
25/08:00am 24.7 - - - - W 20 28 11 15 1005.9 - 30.0
25/07:30am 24.3 - - - - NW 24 37 13 20 1006.3 - 26.4
25/07:07am 24.2 - - - - NW 32 43 17 23 1006.2 - 22.4
25/07:00am 24.4 - - - - WNW 19 24 10 13 1006.1 - 21.6
25/06:30am 24.5 - - - - W 19 24 10 13 1005.7 - 18.6
25/06:00am 24.3 - - - - WSW 11 13 6 7 1004.9 1004.9 18.4
25/05:30am 24.3 - - - - SW 7 7 4 4 1004.5 - 18.4
25/05:00am 24.2 - - - - SSW 6 7 3 4 1004.5 - 18.4
25/04:30am 24.1 - - - - WSW 2 6 1 3 1004.7 - 18.4
25/04:00am 24.3 - - - - SW 9 9 5 5 1004.7 - 18.4
25/03:30am 24.5 - - - - SW 11 15 6 8 1004.4 - 18.4
25/03:00am 24.6 - - - - WSW 11 13 6 7 1004.8 1004.8 18.4
25/02:30am 24.6 - - - - W 15 19 8 10 1005.4 - 18.4
25/02:00am 23.9 - - - - W 13 17 7 9 1005.9 - 18.2
25/01:30am 24.0 - - - - W 24 33 13 18 1006.5 - 17.8
25/01:13am 24.8 - - - - W 33 48 18 26 1006.7 - 15.6
25/01:00am 24.6 - - - - WSW 7 9 4 5 1006.3 - 15.6
25/12:30am 24.6 - - - - SW 9 11 5 6 1006.4 - 15.6
25/12:00am 24.8 - - - - SSW 13 17 7 9 1006.6 1006.6 15.6

Latest Capital City Observations: Canberra | Sydney | Melbourne | Brisbane | Adelaide | Perth | Hobart | Darwin

Other formats

Comma delimited format used in spreadsheet applications
http://www.bom.gov.au/fwo/IDD60901/IDD60901.94127.axf

JavaScript Object Notation format (JSON) in row-major order
http://www.bom.gov.au/fwo/IDD60901/IDD60901.94127.json

Data quality

Most of these data are generated automatically and are frequently updated. Quality checks on data are not normally performed. It is possible for incorrect values to appear. Refer to information at About Latest Weather Observations and please check the disclaimer before using these data.